createdAt,value
2023-03-02T06:35:50.448Z,102067.00
2023-03-02T06:38:20.655Z,102061.69
2023-03-02T06:40:50.331Z,102073.97
2023-03-02T06:43:20.061Z,102073.09
2023-03-02T06:45:51.212Z,102079.38
2023-03-02T06:48:21.120Z,101921.91
2023-03-02T06:50:53.345Z,102059.91
2023-03-02T06:53:23.515Z,102076.34
2023-03-02T06:55:53.431Z,102077.75
2023-03-02T06:58:23.055Z,102031.75
2023-03-02T07:00:52.730Z,102071.84
2023-03-02T07:03:22.576Z,102060.16
2023-03-02T07:05:54.927Z,102044.47
2023-03-02T07:08:24.548Z,102064.97
2023-03-02T07:10:54.230Z,101985.97
2023-03-02T07:13:23.985Z,102043.22
2023-03-02T07:15:54.894Z,102053.38
2023-03-02T07:18:24.548Z,102062.84
2023-03-02T07:20:56.861Z,101992.28
2023-03-02T07:23:26.827Z,101982.41
2023-03-02T07:25:56.490Z,102032.63
2023-03-02T07:28:26.448Z,102065.94
2023-03-02T07:30:56.668Z,102054.28
2023-03-02T07:33:26.452Z,102054.31
2023-03-02T07:35:58.930Z,101998.53
2023-03-02T07:38:28.630Z,102053.34
2023-03-02T07:40:58.345Z,102038.66
2023-03-02T07:43:29.425Z,102022.97
2023-03-02T07:46:01.909Z,102036.31
2023-03-02T07:48:31.704Z,102045.13
2023-03-02T07:51:06.007Z,102029.22
2023-03-02T07:53:35.876Z,102048.78
2023-03-02T07:56:09.722Z,102033.34
2023-03-02T07:58:39.866Z,102044.28
2023-03-02T08:01:09.589Z,102005.22
2023-03-02T08:03:39.429Z,102036.97
2023-03-02T08:06:15.240Z,102004.31
2023-03-02T08:08:44.895Z,102047.56
2023-03-02T08:11:16.460Z,102016.78
2023-03-02T08:13:47.001Z,101970.31
2023-03-02T08:16:18.449Z,102046.56
2023-03-02T08:18:48.096Z,102029.88
2023-03-02T08:21:25.876Z,102049.31
2023-03-02T08:23:55.984Z,102047.31
2023-03-02T08:26:25.788Z,102031.13
2023-03-02T08:28:55.424Z,102042.16
2023-03-02T08:31:25.072Z,102031.50
2023-03-02T08:33:54.804Z,102032.00
2023-03-02T08:36:26.987Z,102041.00
2023-03-02T08:38:57.281Z,102030.47
2023-03-02T08:41:26.945Z,102033.47
2023-03-02T08:43:56.897Z,101958.81
2023-03-02T08:46:26.548Z,102040.78
2023-03-02T08:48:56.239Z,102044.69
2023-03-02T08:51:29.473Z,102048.91
2023-03-02T08:53:59.196Z,102036.75
2023-03-02T08:56:30.731Z,102039.53
2023-03-02T08:59:02.852Z,102046.31
2023-03-02T09:01:34.430Z,102042.78
2023-03-02T09:04:05.257Z,102055.94
2023-03-02T09:06:39.912Z,102046.31
2023-03-02T09:09:10.243Z,102051.06
2023-03-02T09:11:39.919Z,102032.97
2023-03-02T09:14:09.612Z,101983.66
2023-03-02T09:16:39.920Z,101966.72
2023-03-02T09:19:09.943Z,102049.94
2023-03-02T09:21:42.249Z,102036.25
2023-03-02T09:24:12.175Z,102022.47
2023-03-02T09:26:41.828Z,102038.13
2023-03-02T09:29:11.761Z,102040.41
2023-03-02T09:31:41.437Z,102038.97
2023-03-02T09:34:11.070Z,102043.97
2023-03-02T09:36:43.273Z,102048.88
2023-03-02T09:39:13.452Z,102007.22
2023-03-02T09:42:06.281Z,102029.94
2023-03-02T09:44:48.969Z,102030.81
2023-03-02T09:47:35.223Z,102052.56
2023-03-02T09:50:17.553Z,102045.28
2023-03-02T09:52:55.272Z,102051.81
2023-03-02T09:55:30.189Z,102053.81
2023-03-02T09:58:02.539Z,102039.72
2023-03-02T10:00:35.392Z,102045.13
2023-03-02T10:03:17.019Z,101980.63
2023-03-02T10:05:48.780Z,102050.25
2023-03-02T10:08:23.941Z,102043.78
2023-03-02T10:11:00.674Z,102030.34
2023-03-02T10:13:34.083Z,102060.81
2023-03-02T10:16:15.473Z,102043.50
2023-03-02T10:18:49.560Z,102065.31
2023-03-02T10:21:25.501Z,102037.47
2023-03-02T10:24:04.429Z,102062.16
2023-03-02T10:26:42.378Z,102042.94
2023-03-02T10:29:52.908Z,102021.75
2023-03-02T10:32:25.310Z,102023.44
2023-03-02T10:34:56.199Z,102022.16
2023-03-02T10:37:27.847Z,102020.16
2023-03-02T10:40:00.373Z,102033.03
2023-03-02T10:42:33.712Z,102034.06
2023-03-02T10:45:11.935Z,102034.88
2023-03-02T10:47:41.803Z,102032.16
2023-03-02T10:50:24.728Z,102030.78
2023-03-02T10:52:59.995Z,102022.16
2023-03-02T10:55:32.865Z,102029.50
2023-03-02T10:58:05.819Z,102011.22
2023-03-02T11:00:37.077Z,102015.50
2023-03-02T11:03:20.707Z,101997.59
2023-03-02T11:05:50.377Z,101992.34
2023-03-02T11:08:21.807Z,102005.78
2023-03-02T11:11:00.928Z,101990.13
2023-03-02T11:13:34.229Z,102009.03
2023-03-02T11:16:05.440Z,101997.69
2023-03-02T11:18:39.623Z,102005.28
2023-03-02T11:21:13.412Z,101989.09
2023-03-02T11:23:54.925Z,102008.00
2023-03-02T11:26:28.950Z,101934.97
2023-03-02T11:29:03.348Z,101997.25
2023-03-02T11:31:40.278Z,102000.38
2023-03-02T11:34:18.830Z,102003.41
2023-03-02T11:36:58.844Z,102003.22
2023-03-02T11:39:46.454Z,102008.00
2023-03-02T11:42:32.182Z,102004.19
2023-03-02T11:45:05.438Z,101997.63
2023-03-02T11:47:36.374Z,101997.25
2023-03-02T11:50:08.941Z,101986.75
2023-03-02T11:52:42.003Z,101987.78
2023-03-02T11:55:20.388Z,101983.03
2023-03-02T11:57:55.163Z,101983.16
2023-03-02T12:00:33.911Z,101981.97
2023-03-02T12:03:08.490Z,101971.44
2023-03-02T12:05:40.784Z,101976.88
2023-03-02T12:08:38.110Z,101964.63
2023-03-02T12:11:10.683Z,101981.59
2023-03-02T12:13:41.557Z,101954.50
2023-03-02T12:16:22.805Z,101985.75
2023-03-02T12:18:52.899Z,101966.53
2023-03-02T12:21:24.634Z,101966.44
2023-03-02T12:24:04.092Z,101972.19
2023-03-02T12:26:37.574Z,101961.66
2023-03-02T12:29:26.209Z,101961.69
2023-03-02T12:31:58.303Z,101958.47
2023-03-02T12:34:37.743Z,101923.97
2023-03-02T12:37:16.094Z,101907.31
2023-03-02T12:40:24.811Z,101943.50
2023-03-02T12:43:21.925Z,101930.78
2023-03-02T12:46:07.055Z,101935.50
2023-03-02T12:48:45.390Z,101902.28
2023-03-02T12:51:22.186Z,101933.34
2023-03-02T12:53:56.667Z,101921.31
2023-03-02T12:56:27.453Z,101905.25
2023-03-02T12:58:59.727Z,101927.00
2023-03-02T13:01:32.216Z,101904.31
2023-03-02T13:04:02.438Z,101916.28
2023-03-02T13:06:35.076Z,101911.69
2023-03-02T13:09:04.888Z,101907.50
2023-03-02T13:11:37.805Z,101891.38
2023-03-02T13:14:21.492Z,101902.03
2023-03-02T13:16:59.816Z,101898.59
2023-03-02T13:19:31.962Z,101895.00
2023-03-02T13:22:03.038Z,101867.06
2023-03-02T13:24:37.743Z,101895.97
2023-03-02T13:27:09.614Z,101888.22
2023-03-02T13:29:41.901Z,101901.34
2023-03-02T13:32:20.595Z,101877.03
2023-03-02T13:34:52.866Z,101873.97
2023-03-02T13:37:39.242Z,101881.88
2023-03-02T13:40:31.701Z,101863.06
2023-03-02T13:43:01.799Z,101894.47
2023-03-02T13:45:35.437Z,101897.34
2023-03-02T13:48:17.329Z,101888.41
2023-03-02T13:50:55.916Z,101880.75
2023-03-02T13:53:25.838Z,101888.81
2023-03-02T13:55:56.839Z,101870.88
2023-03-02T13:58:28.239Z,101888.53
2023-03-02T14:01:00.495Z,101856.22
2023-03-02T14:03:32.115Z,101863.66
2023-03-02T14:06:02.539Z,101877.53
2023-03-02T14:08:32.132Z,101853.56
2023-03-02T14:11:03.533Z,101867.69
2023-03-02T14:13:39.544Z,101864.06
2023-03-02T14:16:14.838Z,101843.91
2023-03-02T14:18:46.978Z,101841.28
2023-03-02T14:21:18.863Z,101869.97
2023-03-02T14:23:49.082Z,101879.78
2023-03-02T14:26:29.880Z,101846.03
2023-03-02T14:29:05.794Z,101867.31
2023-03-02T14:31:38.801Z,101803.25
2023-03-02T14:34:08.511Z,101850.75
2023-03-02T14:36:38.798Z,101781.91
2023-03-02T14:39:22.389Z,101836.22
2023-03-02T14:41:54.650Z,101785.81
2023-03-02T14:44:25.338Z,101805.81
2023-03-02T14:46:58.315Z,101773.91
2023-03-02T14:49:28.730Z,101837.78
2023-03-02T14:52:02.840Z,101822.97
2023-03-02T14:54:39.032Z,101828.94
2023-03-02T14:57:14.202Z,101801.91
2023-03-02T14:59:43.860Z,101821.38
2023-03-02T15:02:25.204Z,101843.03
2023-03-02T15:04:57.432Z,101842.38
2023-03-02T15:07:29.113Z,101840.34
2023-03-02T15:09:59.626Z,101803.41
2023-03-02T15:12:29.416Z,101832.50
2023-03-02T15:14:59.121Z,101835.78
2023-03-02T15:17:31.486Z,101796.06
2023-03-02T15:20:01.086Z,101824.63
2023-03-02T15:22:30.717Z,101822.56
2023-03-02T15:25:00.390Z,101825.41
2023-03-02T15:27:30.093Z,101840.94
2023-03-02T15:29:59.765Z,101811.28
2023-03-02T15:32:31.996Z,101730.56
2023-03-02T15:35:01.601Z,101802.66
2023-03-02T15:37:31.263Z,101792.59
2023-03-02T15:40:00.862Z,101828.47
2023-03-02T15:42:30.440Z,101808.31
2023-03-02T15:45:00.024Z,101829.78
2023-03-02T15:47:33.579Z,101824.81
2023-03-02T15:50:03.321Z,101781.38
2023-03-02T15:52:33.127Z,101785.22
2023-03-02T15:55:02.961Z,101778.91
2023-03-02T15:57:32.718Z,101713.25
2023-03-02T16:00:05.440Z,101816.00
2023-03-02T16:02:37.881Z,101764.78
2023-03-02T16:05:08.459Z,101767.00
2023-03-02T16:07:38.457Z,101755.94
2023-03-02T16:10:15.202Z,101647.75
2023-03-02T16:12:44.946Z,101774.63
2023-03-02T16:15:14.765Z,101816.69
2023-03-02T16:17:47.686Z,101799.56
2023-03-02T16:20:17.444Z,101828.59
2023-03-02T16:22:47.105Z,101811.72
2023-03-02T16:25:16.674Z,101820.72
2023-03-02T16:27:48.176Z,101834.75
2023-03-02T16:30:19.388Z,101767.16
2023-03-02T16:32:52.968Z,101802.75
2023-03-02T16:35:22.666Z,101838.97
2023-03-02T16:37:52.316Z,101838.09
2023-03-02T16:40:22.494Z,101839.72
2023-03-02T16:42:52.771Z,101840.94
2023-03-02T16:45:23.585Z,101856.53
2023-03-02T16:47:55.923Z,101845.84
2023-03-02T16:50:25.524Z,101848.03
2023-03-02T16:52:55.121Z,101856.91
2023-03-02T16:55:24.850Z,101863.81
2023-03-02T16:57:54.514Z,101831.63
2023-03-02T17:00:25.661Z,101865.66
2023-03-02T17:03:01.087Z,101831.28
2023-03-02T17:05:47.541Z,101846.63
2023-03-02T17:08:21.781Z,101855.06
2023-03-02T17:10:53.024Z,101873.66
2023-03-02T17:13:22.852Z,101876.69
2023-03-02T17:15:53.045Z,101868.13
2023-03-02T17:18:27.501Z,101772.94
2023-03-02T17:20:59.322Z,101847.69
2023-03-02T17:23:31.438Z,101828.44
2023-03-02T17:26:01.932Z,101875.44
2023-03-02T17:28:34.722Z,101885.69
2023-03-02T17:31:04.694Z,101862.19
2023-03-02T17:33:37.507Z,101824.50
2023-03-02T17:36:12.033Z,101878.06
2023-03-02T17:38:42.227Z,101874.66
2023-03-02T17:41:14.989Z,101889.78
2023-03-02T17:43:45.573Z,101758.19
2023-03-02T17:46:20.386Z,101892.09
2023-03-02T17:48:55.258Z,101890.69
2023-03-02T17:51:25.749Z,101663.56
2023-03-02T17:53:56.899Z,101844.47
2023-03-02T17:56:28.741Z,101888.47
2023-03-02T17:59:00.487Z,101863.94
2023-03-02T18:01:34.101Z,101889.25
2023-03-02T18:04:11.927Z,101704.88
2023-03-02T18:07:17.373Z,101903.38
2023-03-02T18:10:20.808Z,101726.81
2023-03-02T18:12:58.522Z,101792.06
2023-03-02T18:15:31.846Z,101912.13
2023-03-02T18:18:03.757Z,101803.81
2023-03-02T18:20:40.174Z,101709.06
2023-03-02T18:23:10.736Z,101915.09
2023-03-02T18:25:44.122Z,101921.34
2023-03-02T18:28:14.561Z,101749.63
2023-03-02T18:30:46.348Z,101747.75
2023-03-02T18:33:23.535Z,101666.88
2023-03-02T18:36:08.379Z,101751.19
2023-03-02T18:38:44.675Z,101590.31
2023-03-02T18:41:22.012Z,101824.19
2023-03-02T18:44:01.387Z,101788.41
2023-03-02T18:46:47.700Z,101776.25
2023-03-02T18:50:00.849Z,101755.13
2023-03-02T18:53:15.465Z,101616.81
2023-03-02T18:56:16.924Z,101922.00
2023-03-02T18:59:55.302Z,101789.94
2023-03-02T19:02:58.758Z,101835.06
2023-03-02T19:05:46.105Z,101832.22
2023-03-02T19:08:36.704Z,101938.91
2023-03-02T19:11:23.821Z,101633.47
2023-03-02T19:14:22.660Z,101774.97
2023-03-02T19:17:51.765Z,101714.78
2023-03-02T19:24:16.719Z,101919.72
2023-03-02T19:29:43.556Z,101790.19
2023-03-02T19:32:26.828Z,101910.94
2023-03-02T19:35:00.371Z,101914.72
2023-03-02T19:37:35.799Z,101761.06
2023-03-02T19:40:15.975Z,101853.09
2023-03-02T19:42:49.663Z,101700.28
2023-03-02T19:45:25.652Z,101821.75
2023-03-02T19:47:57.590Z,101827.19
2023-03-02T19:50:29.172Z,101866.38
2023-03-02T19:53:00.617Z,101884.97
2023-03-02T21:00:56.495Z,101773.25
2023-03-02T21:07:53.773Z,101755.97
2023-03-02T21:15:09.535Z,101943.06
2023-03-02T21:19:08.544Z,101844.13
2023-03-02T21:22:19.614Z,101812.84
2023-03-02T21:26:15.392Z,101740.88
2023-03-02T21:30:07.392Z,101636.19
2023-03-02T21:34:18.900Z,101720.59
2023-03-02T21:38:08.479Z,101926.03
